Terminal Aerodrome Forecast
Issued by NWS

Home | Current Version | Previous Version | Text Only | Print | Product List | Glossary Off
Versions: 1 2 3 4 5 6 7 8 9 10 11 12 13

000
FTUS42 KTBW 171751
TAFPIE
TAF
KPIE 171751Z 1718/1818 33016G23KT P6SM BKN030
      TEMPO 1718/1721 BKN015
     FM180000 33016G23KT P6SM SCT030
     FM180600 02014KT P6SM SKC=

USA.gov is the U.S. government's official web portal to all federal, state and local government web resources and services.